Latest Weather Observations for Beaudesert AWS

IDQ60801

Issued at 11:05 pm EST Friday 31 October 2014 (issued every 30 minutes, with the page automatically refreshed every 10 minutes)

About weather observations | Map of weather stations | Latest weather observations for QLD | Other Formats
Station Details ID: 040983 Name: BEAUDESERT DRUMLEY STREET Lat: -27.97 Lon: 152.99 Height: 47.81 m
Data from the previous 72 hours. | See also: Recent months at Beaudesert AWS
Date/Time
EST
Temp
°C
App
Temp
°C
Dew
Point
Rel
Hum
%
Delta-T
°C
Wind Press
QNH
hPa
Press
MSL
hPa
Rain
since 9 am
mm
Dir
 
Spd
km/h
Gust
km/h
Spd
kts
Gust
kts
31/11:00pm 22.2 24.2 18.8 81 2.1 NE 6 9 3 5 1015.5 1015.4 0.0
31/10:30pm 21.2 23.1 17.6 80 2.2 ENE 4 7 2 4 1015.9 1015.8 0.0
31/10:00pm 21.8 23.4 17.8 78 2.5 ENE 6 9 3 5 1015.8 1015.7 0.0
31/09:30pm 22.1 24.0 17.7 76 2.7 ENE 4 7 2 4 1015.9 1015.8 0.0
31/09:00pm 22.4 24.6 17.5 74 3.0 ENE 2 6 1 3 1015.9 1015.8 0.0
31/08:30pm 23.0 24.6 17.9 73 3.2 NE 6 15 3 8 1015.5 1015.4 0.0
31/08:00pm 23.3 24.8 18.0 72 3.3 ENE 7 17 4 9 1015.4 1015.3 0.0
31/07:30pm 23.7 24.4 17.9 70 3.6 NNE 11 20 6 11 1014.6 1014.5 0.0
31/07:00pm 24.0 25.1 18.0 69 3.8 NE 9 19 5 10 1014.4 1014.3 0.0
31/06:30pm 24.4 25.5 17.9 67 4.1 NNE 9 17 5 9 1014.1 1014.0 0.0
31/06:00pm 25.2 26.7 17.7 63 4.7 NE 6 13 3 7 1013.5 1013.4 0.0
31/05:30pm 26.2 26.0 17.6 59 5.4 NNE 15 30 8 16 1013.0 1012.9 0.0
31/05:00pm 27.7 26.8 16.9 51 6.8 NNE 17 28 9 15 1012.4 1012.2 0.0
31/04:30pm 28.5 27.3 17.1 50 7.2 NE 19 30 10 16 1012.1 1011.9 0.0
31/04:00pm 29.9 29.3 16.7 45 8.3 NE 15 30 8 16 1011.9 1011.7 0.0
31/03:30pm 30.4 29.1 14.9 39 9.5 NNE 15 33 8 18 1011.9 1011.7 0.0
31/03:00pm 31.4 30.9 15.8 39 9.7 NNE 13 28 7 15 1011.9 1011.7 0.0
31/02:30pm 32.2 30.3 14.3 33 10.9 NNE 17 30 9 16 1012.0 1011.8 0.0
31/02:00pm 33.2 32.4 15.2 33 11.2 NNE 13 22 7 12 1012.1 1011.9 0.0
31/01:30pm 33.0 32.4 14.6 33 11.3 N 11 22 6 12 1012.5 1012.3 0.0
31/01:00pm 32.4 32.5 14.5 33 11.0 NE 7 15 4 8 1013.1 1013.0 0.0
31/12:30pm 31.6 31.2 15.1 36 10.2 N 11 20 6 11 1013.9 1013.8 0.0
31/12:00pm 30.7 30.2 13.9 36 10.1 N 9 17 5 9 1014.5 1014.4 0.0
31/11:30am 29.8 31.0 16.9 45 8.1 W 6 17 3 9 1015.0 1014.9 0.0
31/11:00am 28.0 29.5 16.6 50 7.1 SSE 4 7 2 4 1015.6 1015.5 0.0
31/10:30am 27.3 28.9 16.9 53 6.5 WNW 4 7 2 4 1016.2 1016.1 0.0
31/10:00am 26.1 27.3 16.9 57 5.7 W 6 9 3 5 1016.7 1016.6 0.0
31/09:30am 25.4 26.6 17.3 61 5.1 NW 7 13 4 7 1017.2 1017.1 0.0
31/09:00am 24.5 25.6 17.0 63 4.6 NW 7 11 4 6 1017.3 1017.2 0.0
31/08:30am 24.7 25.3 16.9 62 4.8 NNW 9 11 5 6 1017.3 1017.2 0.0
31/08:00am 24.1 26.6 18.1 69 3.8 NNW 2 7 1 4 1017.3 1017.2 0.0
31/07:30am 23.2 25.6 17.9 72 3.3 WNW 2 4 1 2 1017.4 1017.3 0.0
31/07:00am 22.6 25.4 17.9 75 2.9 CALM 0 0 0 0 1017.2 1017.1 0.0
31/06:30am 21.6 24.3 17.8 79 2.4 CALM 0 2 0 1 1017.0 1016.9 0.0
31/06:00am 20.9 23.6 17.7 82 2.0 CALM 0 0 0 0 1016.8 1016.7 0.0
31/05:30am 20.5 23.1 17.5 83 1.8 CALM 0 0 0 0 1016.4 1016.3 0.0
31/05:00am 20.2 22.8 17.6 85 1.6 CALM 0 0 0 0 1015.9 1015.8 0.0
31/04:30am 19.8 22.3 17.2 85 1.6 CALM 0 0 0 0 1015.8 1015.7 0.0
31/04:00am 19.6 22.1 17.2 86 1.5 CALM 0 0 0 0 1015.5 1015.4 0.0
31/03:30am 19.5 21.8 16.7 84 1.7 CALM 0 0 0 0 1015.2 1015.1 0.0
31/03:00am 19.4 21.8 17.0 86 1.5 CALM 0 0 0 0 1015.1 1015.0 0.0
31/02:30am 19.2 21.5 16.8 86 1.5 CALM 0 0 0 0 1015.3 1015.2 0.0
31/02:00am 18.8 20.7 16.6 87 1.3 S 2 4 1 2 1015.4 1015.3 0.0
31/01:30am 19.0 21.2 16.4 85 1.6 CALM 0 0 0 0 1015.4 1015.3 0.0
31/01:00am 19.3 21.5 16.5 84 1.7 CALM 0 0 0 0 1015.6 1015.5 0.0
31/12:30am 19.5 21.8 16.7 84 1.7 CALM 0 0 0 0 1015.7 1015.6 0.0
31/12:00am 19.6 21.5 16.8 84 1.7 SSE 2 4 1 2 1016.0 1015.9 0.0
 
Date/Time
EST
Temp
°C
App
Temp
°C
Dew
Point
Rel
Hum
%
Delta-T
°C
Wind Press
QNH
hPa
Press
MSL
hPa
Rain
since 9 am
mm
Dir
 
Spd
km/h
Gust
km/h
Spd
kts
Gust
kts
30/11:30pm 19.8 21.8 17.0 84 1.7 ESE 2 4 1 2 1016.5 1016.4 0.0
30/11:00pm 19.9 21.9 16.9 83 1.8 SE 2 4 1 2 1017.0 1016.9 0.0
30/10:30pm 20.3 22.7 17.1 82 2.0 CALM 0 0 0 0 1017.1 1017.0 0.0
30/10:00pm 20.2 22.5 16.8 81 2.1 CALM 0 0 0 0 1016.8 1016.7 0.0
30/09:30pm 20.4 22.8 17.0 81 2.1 CALM 0 0 0 0 1016.6 1016.5 0.0
30/09:00pm 21.1 23.2 17.1 78 2.4 ENE 2 6 1 3 1016.4 1016.3 0.0
30/08:30pm 21.5 22.8 17.1 76 2.7 E 6 9 3 5 1016.2 1016.1 0.0
30/08:00pm 22.2 23.4 17.3 74 3.0 NNE 7 13 4 7 1015.8 1015.7 0.0
30/07:30pm 22.3 23.4 17.2 73 3.1 NNE 7 13 4 7 1015.5 1015.4 0.0
30/07:00pm 22.7 23.5 17.2 71 3.4 NE 9 13 5 7 1014.9 1014.8 0.0
30/06:30pm 23.3 24.2 16.6 66 4.1 NE 7 13 4 7 1014.5 1014.4 0.0
30/06:00pm 24.3 24.2 16.0 60 5.1 ENE 11 19 6 10 1014.0 1013.9 0.0
30/05:30pm 26.2 26.0 14.6 48 7.0 NNE 9 17 5 9 1013.5 1013.4 0.0
30/05:00pm 27.3 25.5 13.3 42 8.3 NNE 15 22 8 12 1013.0 1012.9 0.0
30/04:30pm 28.1 26.4 13.6 41 8.6 NE 15 26 8 14 1012.8 1012.6 0.0
30/04:00pm 28.9 26.4 13.6 39 9.1 ENE 19 26 10 14 1012.7 1012.5 0.0
30/03:30pm 29.4 28.0 14.4 40 9.1 NE 15 28 8 15 1012.5 1012.3 0.0
30/03:00pm 29.7 27.3 13.9 38 9.5 NE 19 28 10 15 1012.6 1012.4 0.0
30/02:30pm 30.5 28.6 12.9 34 10.5 NE 15 26 8 14 1012.5 1012.3 0.0
30/02:00pm 30.8 29.2 11.7 31 11.2 NNE 11 19 6 10 1012.7 1012.5 0.0
30/01:30pm 31.3 30.1 11.7 30 11.5 ENE 9 19 5 10 1013.0 1012.9 0.0
30/01:00pm 31.4 30.6 11.7 29 11.5 N 7 19 4 10 1013.6 1013.5 0.0
30/12:30pm 30.9 29.8 11.8 31 11.2 NW 9 15 5 8 1014.3 1014.2 0.0
30/12:00pm 30.6 30.7 13.8 35 10.1 SSW 6 13 3 7 1014.8 1014.7 0.0
30/11:30am 29.5 28.7 12.9 36 9.8 WNW 9 19 5 10 1015.4 1015.3 0.0
30/11:00am 29.6 29.1 12.1 34 10.2 E 6 11 3 6 1015.9 1015.8 0.0
30/10:30am 28.4 27.9 11.9 36 9.6 NNE 6 13 3 7 1016.6 1016.5 0.0
30/10:00am 27.8 27.9 12.6 39 8.9 NNW 4 7 2 4 1017.0 1016.9 0.0
30/09:30am 26.2 25.9 12.6 43 7.9 NE 6 11 3 6 1017.3 1017.2 0.0
30/09:00am 25.8 25.6 13.6 47 7.2 NNE 7 13 4 7 1017.9 1017.8 0.0
30/08:30am 24.4 25.1 14.5 54 5.9 WSW 4 7 2 4 1018.3 1018.2 0.0
30/08:00am 23.0 23.2 14.3 58 5.1 WSW 6 9 3 5 1018.5 1018.4 0.0
30/07:30am 21.4 21.6 14.1 63 4.3 SSW 6 11 3 6 1018.6 1018.5 0.0
30/07:00am 19.5 20.8 14.1 71 3.1 CALM 0 2 0 1 1018.6 1018.5 0.0
30/06:30am 17.1 17.9 12.6 75 2.5 CALM 0 0 0 0 1018.1 1018.0 0.0
30/06:00am 15.8 16.6 12.4 80 1.9 CALM 0 0 0 0 1017.9 1017.8 0.0
30/05:30am 14.4 14.8 12.4 88 1.1 SSE 2 4 1 2 1017.3 1017.2 0.0
30/05:00am 13.8 14.0 11.8 88 1.1 SE 2 4 1 2 1017.0 1016.9 0.0
30/04:30am 13.7 14.3 11.8 88 1.0 CALM 0 0 0 0 1016.8 1016.7 0.0
30/04:00am 14.0 14.4 11.3 84 1.4 CALM 0 0 0 0 1016.7 1016.6 0.0
30/03:30am 14.6 15.2 11.9 84 1.5 CALM 0 0 0 0 1016.6 1016.5 0.0
30/03:00am 15.3 16.2 12.8 85 1.4 CALM 0 2 0 1 1016.7 1016.6 0.0
30/02:30am 14.4 14.9 11.6 83 1.5 CALM 0 0 0 0 1016.7 1016.6 0.0
30/02:00am 15.4 16.4 13.1 86 1.3 CALM 0 0 0 0 1016.7 1016.6 0.0
30/01:30am 15.0 15.8 12.7 86 1.3 CALM 0 0 0 0 1016.8 1016.7 0.0
30/01:00am 14.9 15.6 12.2 84 1.5 CALM 0 0 0 0 1016.9 1016.8 0.0
30/12:30am 15.0 15.7 12.1 83 1.6 CALM 0 0 0 0 1017.1 1017.0 0.0
30/12:00am 16.9 18.0 13.4 80 2.0 CALM 0 0 0 0 1017.4 1017.3 0.0
 
Date/Time
EST
Temp
°C
App
Temp
°C
Dew
Point
Rel
Hum
%
Delta-T
°C
Wind Press
QNH
hPa
Press
MSL
hPa
Rain
since 9 am
mm
Dir
 
Spd
km/h
Gust
km/h
Spd
kts
Gust
kts
29/11:30pm 16.7 17.6 13.0 79 2.1 CALM 0 0 0 0 1017.6 1017.5 0.0
29/11:00pm 16.4 17.2 12.4 77 2.2 CALM 0 0 0 0 1017.7 1017.6 0.0
29/10:30pm 17.6 18.5 12.9 74 2.6 CALM 0 0 0 0 1017.7 1017.6 0.0
29/10:00pm 19.3 20.0 13.5 69 3.3 SSW 2 4 1 2 1017.6 1017.5 0.0
29/09:30pm 20.8 21.0 14.7 68 3.6 SE 7 13 4 7 1017.5 1017.4 0.0
29/09:00pm 20.9 21.5 14.3 66 3.8 ESE 4 9 2 5 1017.5 1017.4 0.0
29/08:30pm 21.6 22.7 14.5 64 4.2 ESE 2 7 1 4 1017.3 1017.2 0.0
29/08:00pm 21.6 21.2 14.0 62 4.4 SE 9 15 5 8 1016.7 1016.6 0.0
29/07:30pm 22.0 21.2 14.1 61 4.6 SE 11 26 6 14 1016.3 1016.2 0.0
29/07:00pm 22.5 21.5 13.3 56 5.3 ESE 11 28 6 15 1015.8 1015.7 0.0
29/06:30pm 23.2 22.3 12.5 51 6.1 E 9 15 5 8 1015.2 1015.1 0.0
29/06:00pm 24.2 20.9 10.8 43 7.5 E 19 30 10 16 1014.5 1014.4 0.0
29/05:30pm 25.5 21.1 8.9 35 9.0 E 22 35 12 19 1013.7 1013.6 0.0
29/05:00pm 26.8 22.7 10.1 35 9.3 E 22 33 12 18 1013.2 1013.1 0.0
29/04:30pm 28.1 24.4 10.3 33 10.0 ENE 20 35 11 19 1012.7 1012.5 0.0
29/04:00pm 29.5 26.2 11.5 33 10.4 ENE 20 32 11 17 1012.2 1012.0 0.0
29/03:30pm 30.3 27.9 12.7 34 10.4 E 17 28 9 15 1012.0 1011.8 0.0
29/03:00pm 30.9 28.1 13.2 34 10.6 E 20 32 11 17 1011.9 1011.7 0.0
29/02:30pm 30.6 28.1 13.4 35 10.3 E 19 26 10 14 1012.0 1011.8 0.0
29/02:00pm 31.9 30.2 13.6 32 11.1 E 15 22 8 12 1012.1 1011.9 0.0
29/01:30pm 32.5 31.2 11.1 27 12.5 WNW 9 15 5 8 1012.4 1012.2 0.0
29/01:00pm 31.9 29.8 11.1 28 12.1 WSW 13 19 7 10 1012.7 1012.5 0.0
29/12:30pm 32.8 33.1 13.4 30 11.7 N 4 15 2 8 1013.0 1012.9 0.0
29/12:00pm 30.9 29.8 11.8 31 11.2 W 9 19 5 10 1013.5 1013.4 0.0
29/11:30am 30.8 29.2 12.7 33 10.7 W 13 19 7 10 1013.7 1013.6 0.0
29/11:00am 30.6 30.0 13.4 35 10.3 WSW 9 19 5 10 1014.0 1013.9 0.0
29/10:30am 30.0 29.8 12.9 35 10.1 SSW 6 13 3 7 1014.5 1014.4 0.0
29/10:00am 29.1 28.9 12.9 37 9.6 NE 6 15 3 8 1014.8 1014.7 0.0
29/09:30am 28.3 28.6 13.4 40 8.8 S 4 11 2 6 1014.9 1014.8 0.0
29/09:00am 26.4 26.6 14.2 47 7.3 SSE 6 13 3 7 1015.0 1014.9 0.0
29/08:30am 24.9 26.2 16.1 58 5.4 W 4 9 2 5 1015.0 1014.9 0.0
29/08:00am 22.9 24.5 16.0 65 4.2 WSW 2 4 1 2 1014.9 1014.8 0.0
29/07:30am 20.5 22.5 15.9 75 2.8 CALM 0 4 0 2 1014.8 1014.7 0.0
29/07:00am 17.8 19.5 15.2 85 1.5 CALM 0 0 0 0 1014.5 1014.4 0.0
29/06:30am 16.1 16.6 14.1 88 1.1 S 4 6 2 3 1014.2 1014.1 0.0
29/06:00am 14.6 15.7 13.5 93 0.6 CALM 0 0 0 0 1014.0 1013.9 0.0
29/05:30am 11.7 11.5 10.4 92 0.7 S 2 4 1 2 1013.6 1013.5 0.0
29/05:00am 11.9 11.7 10.6 92 0.7 SSE 2 4 1 2 1013.3 1013.2 0.0
29/04:30am 11.5 11.5 9.9 90 0.8 CALM 0 0 0 0 1012.9 1012.7 0.0
29/04:00am 12.7 13.1 11.3 91 0.7 CALM 0 0 0 0 1012.6 1012.4 0.0
29/03:30am 13.1 13.7 11.8 92 0.7 CALM 0 0 0 0 1012.3 1012.1 0.0
29/03:00am 13.5 13.8 12.2 92 0.7 N 2 6 1 3 1012.1 1011.9 0.0
29/02:30am 14.1 15.0 12.8 92 0.7 CALM 0 0 0 0 1011.6 1011.4 0.0
29/02:00am 14.2 15.1 12.8 91 0.8 CALM 0 0 0 0 1011.3 1011.1 0.0
29/01:30am 13.8 13.9 11.5 86 1.2 WSW 2 2 1 1 1011.5 1011.3 0.0
29/01:00am 14.7 15.4 12.2 85 1.4 CALM 0 0 0 0 1011.5 1011.3 0.0
29/12:30am 15.9 17.1 13.7 87 1.2 CALM 0 0 0 0 1011.7 1011.5 0.0
29/12:00am 17.0 17.9 15.0 88 1.2 ESE 4 4 2 2 1011.9 1011.7 0.0
 
Date/Time
EST
Temp
°C
App
Temp
°C
Dew
Point
Rel
Hum
%
Delta-T
°C
Wind Press
QNH
hPa
Press
MSL
hPa
Rain
since 9 am
mm
Dir
 
Spd
km/h
Gust
km/h
Spd
kts
Gust
kts
28/11:30pm 16.1 17.2 13.6 85 1.4 CALM 0 0 0 0 1012.1 1011.9 0.0

Other Formats:

Comma delimited format used in spreadsheet applications
http://www.bom.gov.au/fwo/IDQ60801/IDQ60801.95575.axf

JavaScript Object Notation format (JSON) in row-major order
http://www.bom.gov.au/fwo/IDQ60801/IDQ60801.95575.json